Observation data for Dimmitt on 04/21/2017      Previous  Date  Next       Current Mesonet Observations  Soil Data  Daily Summary Page  Observations in Plain Language
KDMS 210505Z 08010KT 13/11 A2997 RMK A01 T01260112  RH  093%=      5-min Rain = 0
KDMS 210510Z 07009KT 13/11 A2997 RMK A01 T01260112  RH  093%=      5-min Rain = 0
KDMS 210515Z 08010KT 13/11 A2996 RMK A01 T01250111  RH  093%=      5-min Rain = 0
KDMS 210520Z 08010KT 12/11 A2996 RMK A01 T01240110  RH  093%=      5-min Rain = 0
KDMS 210525Z 08010KT 12/11 A2996 RMK A01 T01240110  RH  093%=      5-min Rain = 0
KDMS 210530Z 08009KT 12/11 A2996 RMK A01 T01230110  RH  093%=      5-min Rain = 0
KDMS 210535Z 09010KT 12/11 A2995 RMK A01 T01240111  RH  093%=      5-min Rain = 0
KDMS 210540Z 09010KT 13/11 A2995 RMK A01 T01260112  RH  093%=      5-min Rain = 0
KDMS 210545Z 09011KT 13/11 A2995 RMK A01 T01280114  RH  093%=      5-min Rain = 0
KDMS 210550Z 08012KT 13/12 A2995 RMK A01 T01310116  RH  092%=      5-min Rain = 0
KDMS 210555Z 08014G19KT 13/12 A2995 RMK A01 T01330116  RH  091%=      5-min Rain = 0
KDMS 210600Z 09013KT 13/12 A2995 RMK A01 T01340117  RH  091%=      5-min Rain = 0
KDMS 210605Z 09013KT 13/12 A2995 RMK A01 T01340117  RH  091%=      5-min Rain = 0
KDMS 210610Z 09010KT 14/12 A2995 RMK A01 T01350117  RH  091%=      5-min Rain = 0
KDMS 210615Z 09011KT 14/12 A2995 RMK A01 T01350117  RH  090%=      5-min Rain = 0
KDMS 210620Z 09010KT 14/12 A2995 RMK A01 T01360117  RH  090%=      5-min Rain = 0
KDMS 210625Z 09010KT 14/12 A2995 RMK A01 T01360117  RH  090%=      5-min Rain = 0
KDMS 210630Z 09011KT 14/12 A2995 RMK A01 T01370117  RH  089%=      5-min Rain = 0
KDMS 210635Z 10010KT 14/12 A2995 RMK A01 T01370116  RH  089%=      5-min Rain = 0
KDMS 210640Z 09009G14KT 14/12 A2995 RMK A01 T01370116  RH  089%=      5-min Rain = 0
KDMS 210645Z 09010KT 14/12 A2995 RMK A01 T01370115  RH  089%=      5-min Rain = 0
KDMS 210650Z 09009KT 14/12 A2994 RMK A01 T01370116  RH  089%=      5-min Rain = 0
KDMS 210655Z 09009KT 14/12 A2995 RMK A01 T01370115  RH  088%=      5-min Rain = 0
KDMS 210700Z 09008KT 14/12 A2995 RMK A01 T01370115  RH  088%=      5-min Rain = 0
KDMS 210705Z 09008KT 14/12 A2995 RMK A01 T01370116  RH  088%=      5-min Rain = 0
KDMS 210710Z 09010KT 14/12 A2995 RMK A01 T01380116  RH  088%=      5-min Rain = 0
KDMS 210715Z 08010KT 14/12 A2995 RMK A01 T01380116  RH  088%=      5-min Rain = 0
KDMS 210720Z 08012KT 14/12 A2994 RMK A01 T01370116  RH  088%=      5-min Rain = 0
KDMS 210725Z 08011KT 14/12 A2994 RMK A01 T01360116  RH  089%=      5-min Rain = 0
KDMS 210730Z 09010KT 14/12 A2993 RMK A01 T01360116  RH  089%=      5-min Rain = 0
KDMS 210735Z 09010KT 14/12 A2993 RMK A01 T01360116  RH  089%=      5-min Rain = 0
KDMS 210740Z 09011KT 14/12 A2993 RMK A01 T01370116  RH  089%=      5-min Rain = 0
KDMS 210745Z 09011KT 14/12 A2993 RMK A01 T01370116  RH  089%=      5-min Rain = 0
KDMS 210750Z 10011KT 14/12 A2993 RMK A01 T01370116  RH  089%=      5-min Rain = 0
KDMS 210755Z 10012KT 14/12 A2993 RMK A01 T01360116  RH  089%=      5-min Rain = 0
KDMS 210800Z 10012KT 14/12 A2993 RMK A01 T01370117  RH  089%=      5-min Rain = 0
KDMS 210805Z 10009KT 14/12 A2992 RMK A01 T01370117  RH  090%=      5-min Rain = 0
KDMS 210810Z 10008KT 14/12 A2992 RMK A01 T01370118  RH  090%=      5-min Rain = 0
KDMS 210815Z 09009KT 14/12 A2992 RMK A01 T01370119  RH  090%=      5-min Rain = 0
KDMS 210820Z 10009KT 14/12 A2992 RMK A01 T01380119  RH  090%=      5-min Rain = 0
KDMS 210825Z 10009KT 14/12 A2992 RMK A01 T01380120  RH  091%=      5-min Rain = 0
KDMS 210830Z 09008KT 14/12 A2992 RMK A01 T01380120  RH  091%=      5-min Rain = 0
KDMS 210835Z 10009KT 14/12 A2992 RMK A01 T01380120  RH  091%=      5-min Rain = 0
KDMS 210840Z 11010KT 14/12 A2992 RMK A01 T01370120  RH  091%=      5-min Rain = 0
KDMS 210845Z 10009KT 14/12 A2991 RMK A01 T01370119  RH  091%=      5-min Rain = 0
KDMS 210850Z 11008KT 14/12 A2991 RMK A01 T01370120  RH  091%=      5-min Rain = 0
KDMS 210855Z 11008KT 14/12 A2991 RMK A01 T01370120  RH  091%=      5-min Rain = 0
KDMS 210900Z 12008KT 14/12 A2991 RMK A01 T01380121  RH  091%=      5-min Rain = 0
KDMS 210905Z 12009KT 14/12 A299 RMK A01 T01380121  RH  091%=      5-min Rain = 0
KDMS 210910Z 12010KT 14/12 A299 RMK A01 T01380121  RH  091%=      5-min Rain = 0
KDMS 210915Z 11010KT 14/12 A299 RMK A01 T01370120  RH  091%=      5-min Rain = 0
KDMS 210920Z 12008KT 14/12 A299 RMK A01 T01370120  RH  091%=      5-min Rain = 0
KDMS 210925Z 12008KT 14/12 A299 RMK A01 T01370120  RH  091%=      5-min Rain = 0
KDMS 210930Z 11008KT 14/12 A299 RMK A01 T01370121  RH  092%=      5-min Rain = 0
KDMS 210935Z 11008KT 14/12 A299 RMK A01 T01370121  RH  092%=      5-min Rain = 0
KDMS 210940Z 10008KT 14/12 A2989 RMK A01 T01370122  RH  092%=      5-min Rain = 0
KDMS 210945Z 10008KT 14/12 A2989 RMK A01 T01370122  RH  092%=      5-min Rain = 0
KDMS 210950Z 11007KT 14/12 A2989 RMK A01 T01370122  RH  092%=      5-min Rain = 0
KDMS 210955Z 12007KT 14/12 A2989 RMK A01 T01380122  RH  092%=      5-min Rain = 0
KDMS 211000Z 13007KT 14/12 A2988 RMK A01 T01380123  RH  092%=      5-min Rain = 0
KDMS 211005Z 14008KT 14/12 A2988 RMK A01 T01380123  RH  093%=      5-min Rain = 0
KDMS 211010Z 13009KT 14/12 A2988 RMK A01 T01370123  RH  093%=      5-min Rain = 0
KDMS 211015Z 14009KT 14/12 A2987 RMK A01 T01360122  RH  093%=      5-min Rain = 0
KDMS 211020Z 14008KT 14/12 A2987 RMK A01 T01360122  RH  093%=      5-min Rain = 0
KDMS 211025Z 14007KT 14/12 A2987 RMK A01 T01370123  RH  093%=      5-min Rain = 0
KDMS 211030Z 15007KT 14/12 A2987 RMK A01 T01370123  RH  093%=      5-min Rain = 0
KDMS 211035Z 14007KT 14/12 A2987 RMK A01 T01370123  RH  093%=      5-min Rain = 0
KDMS 211040Z 15007KT 14/12 A2987 RMK A01 T01370124  RH  093%=      5-min Rain = 0
KDMS 211045Z 15007KT 14/12 A2988 RMK A01 T01370124  RH  093%=      5-min Rain = 0
KDMS 211050Z 15006KT 14/12 A2988 RMK A01 T01370124  RH  094%=      5-min Rain = 0
KDMS 211055Z 15005KT 14/13 A2988 RMK A01 T01380125  RH  094%=      5-min Rain = 0
KDMS 211100Z 15006KT 14/13 A2988 RMK A01 T01380125  RH  094%=      5-min Rain = 0
KDMS 211105Z 16006KT 14/13 A2989 RMK A01 T01380126  RH  094%=      5-min Rain = 0
KDMS 211110Z 16007KT 14/13 A2989 RMK A01 T01390126  RH  094%=      5-min Rain = 0
KDMS 211115Z 18005KT 14/13 A2989 RMK A01 T01390126  RH  094%=      5-min Rain = 0
KDMS 211120Z 20004KT 14/13 A2989 RMK A01 T01380125  RH  094%=      5-min Rain = 0
KDMS 211125Z 19004KT 14/13 A2989 RMK A01 T01380126  RH  094%=      5-min Rain = 0
KDMS 211130Z 17005KT 14/13 A2989 RMK A01 T01390126  RH  094%=      5-min Rain = 0
KDMS 211135Z 16005KT 14/13 A2988 RMK A01 T01390127  RH  094%=      5-min Rain = 0
KDMS 211140Z 16005KT 14/13 A2988 RMK A01 T01400128  RH  094%=      5-min Rain = 0
KDMS 211145Z 16004KT 14/13 A2989 RMK A01 T01400128  RH  094%=      5-min Rain = 0
KDMS 211150Z 17004KT 14/13 A2989 RMK A01 T01400128  RH  094%=      5-min Rain = 0
KDMS 211155Z 18002KT 14/13 A2989 RMK A01 T01400128  RH  094%=      5-min Rain = 0
KDMS 211200Z 18002KT 14/13 A2989 RMK A01 T01400129  RH  094%=      5-min Rain = 0
KDMS 211205Z 18003KT 14/13 A2989 RMK A01 T01410129  RH  095%=      5-min Rain = 0
KDMS 211210Z 17004KT 14/13 A2989 RMK A01 T01410129  RH  095%=      5-min Rain = 0
KDMS 211215Z 16004KT 14/13 A2989 RMK A01 T01410129  RH  095%=      5-min Rain = 0
KDMS 211220Z 16003KT 14/13 A2989 RMK A01 T01410129  RH  095%=      5-min Rain = 0
KDMS 211225Z 16005KT 14/13 A2989 RMK A01 T01410130  RH  095%=      5-min Rain = 0
KDMS 211230Z 16004KT 14/13 A2989 RMK A01 T01410130  RH  095%=      5-min Rain = 0
KDMS 211235Z 16004KT 14/13 A2989 RMK A01 T01410130  RH  095%=      5-min Rain = 0
KDMS 211240Z 16005KT 14/13 A2989 RMK A01 T01410131  RH  095%=      5-min Rain = 0
KDMS 211245Z 16005KT 14/13 A2989 RMK A01 T01410132  RH  096%=      5-min Rain = 0
KDMS 211250Z 15005KT 14/13 A2989 RMK A01 T01420133  RH  096%=      5-min Rain = 0
KDMS 211255Z 15005KT 14/13 A2989 RMK A01 T01440134  RH  096%=      5-min Rain = 0
KDMS 211300Z 15005KT 15/14 A2988 RMK A01 T01450136  RH  096%=      5-min Rain = 0
KDMS 211305Z 15004KT 15/14 A2989 RMK A01 T01470138  RH  096%=      5-min Rain = 0
KDMS 211310Z 15003KT 15/14 A2989 RMK A01 T01480139  RH  096%=      5-min Rain = 0
KDMS 211315Z 15003KT 15/14 A2989 RMK A01 T01490139  RH  096%=      5-min Rain = 0
KDMS 211320Z 15002KT 15/14 A2989 RMK A01 T01490140  RH  096%=      5-min Rain = 0
KDMS 211325Z 15003KT 15/14 A2989 RMK A01 T01490139  RH  096%=      5-min Rain = 0
KDMS 211330Z 15002KT 15/14 A2989 RMK A01 T01500140  RH  096%=      5-min Rain = 0
KDMS 211335Z 15001KT 15/14 A2989 RMK A01 T01510141  RH  096%=      5-min Rain = 0
KDMS 211340Z 15002KT 15/14 A2989 RMK A01 T01510142  RH  096%=      5-min Rain = 0
KDMS 211345Z 15003KT 15/14 A2989 RMK A01 T01510141  RH  096%=      5-min Rain = 0
KDMS 211350Z 15002KT 15/14 A2989 RMK A01 T01520142  RH  096%=      5-min Rain = 0
KDMS 211355Z 15002KT 15/14 A2989 RMK A01 T01530143  RH  096%=      5-min Rain = 0
KDMS 211400Z 15002KT 15/14 A2989 RMK A01 T01540144  RH  095%=      5-min Rain = 0
KDMS 211405Z 16003KT 16/14 A2989 RMK A01 T01550144  RH  095%=      5-min Rain = 0
KDMS 211410Z 16002KT 16/15 A2989 RMK A01 T01560145  RH  095%=      5-min Rain = 0
KDMS 211415Z 15003KT 16/15 A299 RMK A01 T01590146  RH  094%=      5-min Rain = 0
KDMS 211420Z 19002KT 16/15 A299 RMK A01 T01610147  RH  094%=      5-min Rain = 0
KDMS 211425Z 19002KT 16/15 A299 RMK A01 T01630147  RH  093%=      5-min Rain = 0
KDMS 211430Z 20000KT 17/15 A2989 RMK A01 T01660149  RH  092%=      5-min Rain = 0
KDMS 211435Z 20001KT 17/15 A2989 RMK A01 T01670148  RH  090%=      5-min Rain = 0
KDMS 211440Z 35002KT 17/15 A2989 RMK A01 T01660146  RH  090%=      5-min Rain = 0
KDMS 211445Z 33003KT 17/15 A2989 RMK A01 T01660145  RH  089%=      5-min Rain = 0
KDMS 211450Z 32003KT 17/15 A2989 RMK A01 T01720146  RH  086%=      5-min Rain = 0
KDMS 211455Z 29006KT 18/14 A2989 RMK A01 T01760142  RH  082%=      5-min Rain = 0
KDMS 211500Z 30007KT 18/14 A2989 RMK A01 T01790141  RH  080%=      5-min Rain = 0
KDMS 211505Z 31008KT 18/14 A2989 RMK A01 T01820141  RH  079%=      5-min Rain = 0
KDMS 211510Z 29009KT 18/14 A2989 RMK A01 T01810137  RH  077%=      5-min Rain = 0
KDMS 211515Z 29008KT 18/14 A2989 RMK A01 T01800135  RH  076%=      5-min Rain = 0
KDMS 211520Z 30007KT 18/14 A2989 RMK A01 T01830135  RH  075%=      5-min Rain = 0
KDMS 211525Z 30008KT 18/13 A2989 RMK A01 T01800132  RH  075%=      5-min Rain = 0
KDMS 211530Z 29008KT 18/13 A2989 RMK A01 T01840130  RH  073%=      5-min Rain = 0
KDMS 211535Z 32007KT 18/13 A2989 RMK A01 T01830131  RH  073%=      5-min Rain = 0
KDMS 211540Z 32008KT 18/13 A2989 RMK A01 T01840130  RH  072%=      5-min Rain = 0
KDMS 211545Z 32007KT 19/13 A2989 RMK A01 T01850133  RH  073%=      5-min Rain = 0
KDMS 211550Z 31008KT 19/13 A2989 RMK A01 T01870132  RH  072%=      5-min Rain = 0
KDMS 211555Z 31008KT 19/13 A2989 RMK A01 T01880128  RH  070%=      5-min Rain = 0
KDMS 211600Z 32006KT 19/13 A2989 RMK A01 T01870128  RH  070%=      5-min Rain = 0
KDMS 211605Z 31005KT 19/13 A2989 RMK A01 T01890128  RH  069%=      5-min Rain = 0
KDMS 211610Z 29006G11KT 19/12 A2989 RMK A01 T01920124  RH  066%=      5-min Rain = 0
KDMS 211615Z 29007KT 20/12 A2989 RMK A01 T01960124  RH  065%=      5-min Rain = 0
KDMS 211620Z 29008KT 20/13 A2989 RMK A01 T01980126  RH  064%=      5-min Rain = 0
KDMS 211625Z 28006G11KT 20/13 A2989 RMK A01 T02020127  RH  063%=      5-min Rain = 0
KDMS 211630Z 28008KT 20/12 A2989 RMK A01 T02010122  RH  061%=      5-min Rain = 0
KDMS 211635Z 25005KT 20/12 A2988 RMK A01 T02010120  RH  061%=      5-min Rain = 0
KDMS 211640Z 25005KT 20/12 A2988 RMK A01 T02010122  RH  062%=      5-min Rain = 0
KDMS 211645Z 28005G11KT 20/12 A2989 RMK A01 T02020120  RH  060%=      5-min Rain = 0
KDMS 211650Z 25007KT 20/12 A2989 RMK A01 T02010120  RH  060%=      5-min Rain = 0
KDMS 211655Z 28006G11KT 20/12 A2988 RMK A01 T02040121  RH  060%=      5-min Rain = 0
KDMS 211700Z 28006KT 21/12 A2989 RMK A01 T02070116  RH  057%=      5-min Rain = 0
KDMS 211705Z 29006KT 21/12 A2988 RMK A01 T02100117  RH  056%=      5-min Rain = 0
KDMS 211710Z 30005G12KT 21/12 A2988 RMK A01 T02100115  RH  056%=      5-min Rain = 0
KDMS 211715Z 31009KT 21/11 A2988 RMK A01 T02110112  RH  054%=      5-min Rain = 0
KDMS 211720Z 30007G12KT 21/11 A2988 RMK A01 T02100112  RH  054%=      5-min Rain = 0
KDMS 211725Z 33003KT 21/11 A2988 RMK A01 T02110107  RH  052%=      5-min Rain = 0
KDMS 211730Z 29005KT 21/10 A2988 RMK A01 T02110103  RH  051%=      5-min Rain = 0
KDMS 211735Z 26006KT 21/10 A2988 RMK A01 T02130098  RH  049%=      5-min Rain = 0
KDMS 211740Z 29007G13KT 22/10 A2988 RMK A01 T02200097  RH  046%=      5-min Rain = 0
KDMS 211745Z 29009G14KT 22/10 A2988 RMK A01 T02220099  RH  046%=      5-min Rain = 0
KDMS 211750Z 31009G15KT 22/10 A2988 RMK A01 T02210097  RH  046%=      5-min Rain = 0
KDMS 211755Z 28010KT 22/09 A2988 RMK A01 T02240091  RH  043%=      5-min Rain = 0
KDMS 211800Z 31008KT 23/10 A2987 RMK A01 T02250103  RH  047%=      5-min Rain = 0
KDMS 211805Z 31011KT 22/10 A2987 RMK A01 T02240104  RH  048%=      5-min Rain = 0
KDMS 211810Z 32010KT 23/10 A2987 RMK A01 T02250099  RH  045%=      5-min Rain = 0
KDMS 211815Z 31007G13KT 23/09 A2987 RMK A01 T02250094  RH  044%=      5-min Rain = 0
KDMS 211820Z 27009G16KT 23/09 A2987 RMK A01 T02270091  RH  043%=      5-min Rain = 0
KDMS 211825Z 28008G15KT 23/09 A2987 RMK A01 T02270085  RH  041%=      5-min Rain = 0
KDMS 211830Z 31010KT 23/09 A2987 RMK A01 T02270092  RH  043%=      5-min Rain = 0
KDMS 211835Z 30009KT 22/09 A2987 RMK A01 T02240085  RH  041%=      5-min Rain = 0
KDMS 211840Z 30009G14KT 23/08 A2987 RMK A01 T02250077  RH  039%=      5-min Rain = 0
KDMS 211845Z 31009G14KT 22/08 A2987 RMK A01 T02230076  RH  039%=      5-min Rain = 0
KDMS 211850Z 35007G12KT 22/07 A2987 RMK A01 T02230070  RH  038%=      5-min Rain = 0
KDMS 211855Z 31009G14KT 23/07 A2986 RMK A01 T02270065  RH  036%=      5-min Rain = 0
KDMS 211900Z 26008KT 23/05 A2986 RMK A01 T02310052  RH  032%=      5-min Rain = 0
KDMS 211905Z 25006KT 23/05 A2986 RMK A01 T02310053  RH  032%=      5-min Rain = 0
KDMS 211910Z 28007KT 23/06 A2986 RMK A01 T02310056  RH  033%=      5-min Rain = 0
KDMS 211915Z 30006G11KT 23/05 A2986 RMK A01 T02310051  RH  032%=      5-min Rain = 0
KDMS 211920Z 29011G17KT 23/06 A2986 RMK A01 T02340057  RH  032%=      5-min Rain = 0
KDMS 211925Z 26008G14KT 23/06 A2986 RMK A01 T02340057  RH  032%=      5-min Rain = 0
KDMS 211930Z 32011KT 24/07 A2986 RMK A01 T02350069  RH  035%=      5-min Rain = 0
KDMS 211935Z 30010G16KT 23/07 A2986 RMK A01 T02340067  RH  035%=      5-min Rain = 0
KDMS 211940Z 30007KT 23/06 A2986 RMK A01 T02330062  RH  034%=      5-min Rain = 0
KDMS 211945Z 35006G14KT 23/07 A2986 RMK A01 T02330073  RH  036%=      5-min Rain = 0
KDMS 211950Z 32009G15KT 23/09 A2986 RMK A01 T02320086  RH  040%=      5-min Rain = 0
KDMS 211955Z 33005G10KT 23/08 A2986 RMK A01 T02300080  RH  039%=      5-min Rain = 0
KDMS 212000Z 02005G10KT 23/08 A2985 RMK A01 T02280076  RH  038%=      5-min Rain = 0
KDMS 212005Z 32007G14KT 23/08 A2985 RMK A01 T02300077  RH  038%=      5-min Rain = 0
KDMS 212010Z 34005G12KT 23/08 A2985 RMK A01 T02300077  RH  038%=      5-min Rain = 0
KDMS 212015Z 03009G16KT 23/13 A2985 RMK A01 T02260126  RH  054%=      5-min Rain = 0
KDMS 212020Z 02011KT 22/12 A2985 RMK A01 T02220122  RH  054%=      5-min Rain = 0
KDMS 212025Z 05012KT 22/12 A2985 RMK A01 T02230120  RH  053%=      5-min Rain = 0
KDMS 212030Z 06012KT 22/12 A2985 RMK A01 T02210124  RH  055%=      5-min Rain = 0
KDMS 212035Z 06012G18KT 22/13 A2984 RMK A01 T02220129  RH  057%=      5-min Rain = 0
KDMS 212040Z 05013KT 22/13 A2984 RMK A01 T02220126  RH  055%=      5-min Rain = 0
KDMS 212045Z 04011KT 22/13 A2984 RMK A01 T02200126  RH  056%=      5-min Rain = 0
KDMS 212050Z 03010KT 22/12 A2984 RMK A01 T02220123  RH  054%=      5-min Rain = 0
KDMS 212055Z 04013G19KT 22/13 A2984 RMK A01 T02210126  RH  056%=      5-min Rain = 0
KDMS 212100Z 05015G20KT 22/13 A2984 RMK A01 T02180126  RH  057%=      5-min Rain = 0
KDMS 212105Z 05017G22KT 21/13 A2984 RMK A01 T02130128  RH  059%=      5-min Rain = 0
KDMS 212110Z 06018KT 21/13 A2984 RMK A01 T02100125  RH  059%=      5-min Rain = 0
KDMS 212115Z 05015KT 21/13 A2983 RMK A01 T02120125  RH  059%=      5-min Rain = 0
KDMS 212120Z 05013G19KT 21/13 A2983 RMK A01 T02130125  RH  058%=      5-min Rain = 0
KDMS 212125Z 05013KT 21/12 A2983 RMK A01 T02120121  RH  057%=      5-min Rain = 0
KDMS 212130Z 04013G20KT 22/12 A2983 RMK A01 T02150121  RH  056%=      5-min Rain = 0
KDMS 212135Z 04011G16KT 21/11 A2983 RMK A01 T02140114  RH  054%=      5-min Rain = 0
KDMS 212140Z 04012KT 22/11 A2983 RMK A01 T02150114  RH  053%=      5-min Rain = 0
KDMS 212145Z 03014KT 22/11 A2983 RMK A01 T02170110  RH  051%=      5-min Rain = 0
KDMS 212150Z 04014G19KT 22/11 A2983 RMK A01 T02150105  RH  050%=      5-min Rain = 0
KDMS 212155Z 05012G18KT 22/10 A2983 RMK A01 T02170104  RH  049%=      5-min Rain = 0
KDMS 212200Z 05015G21KT 22/10 A2983 RMK A01 T02200102  RH  048%=      5-min Rain = 0
KDMS 212205Z 04015KT 22/10 A2983 RMK A01 T02180101  RH  048%=      5-min Rain = 0
KDMS 212210Z 03014KT 22/10 A2983 RMK A01 T02170099  RH  048%=      5-min Rain = 0
KDMS 212215Z 04016G23KT 22/10 A2983 RMK A01 T02170098  RH  047%=      5-min Rain = 0
KDMS 212220Z 03016G21KT 22/10 A2983 RMK A01 T02150096  RH  047%=      5-min Rain = 0
KDMS 212225Z 03018KT 21/09 A2983 RMK A01 T02120094  RH  047%=      5-min Rain = 0
KDMS 212230Z 04019G26KT 21/10 A2984 RMK A01 T02090096  RH  049%=      5-min Rain = 0
KDMS 212235Z 04020G26KT 21/10 A2984 RMK A01 T02050098  RH  051%=      5-min Rain = 0
KDMS 212240Z 03016G21KT 20/10 A2985 RMK A01 T02040098  RH  051%=      5-min Rain = 0
KDMS 212245Z 03017KT 20/10 A2985 RMK A01 T02040097  RH  051%=      5-min Rain = 0
KDMS 212250Z 03017G22KT 20/10 A2985 RMK A01 T02030096  RH  051%=      5-min Rain = 0
KDMS 212255Z 03018G23KT 20/09 A2985 RMK A01 T02000092  RH  051%=      5-min Rain = 0
KDMS 212300Z 03016KT 20/09 A2985 RMK A01 T01980092  RH  051%=      5-min Rain = 0
KDMS 212305Z 03017KT 20/09 A2986 RMK A01 T01990094  RH  052%=      5-min Rain = 0
KDMS 212310Z 03021G26KT 19/09 A2986 RMK A01 T01940093  RH  053%=      5-min Rain = 0
KDMS 212315Z 03020G25KT 19/09 A2986 RMK A01 T01900092  RH  054%=      5-min Rain = 0
KDMS 212320Z 03018KT 19/09 A2987 RMK A01 T01900091  RH  053%=      5-min Rain = 0
KDMS 212325Z 03022G27KT 19/10 A2987 RMK A01 T01850095  RH  057%=      5-min Rain = 0
KDMS 212330Z 03023KT 18/10 A2988 RMK A01 T01800096  RH  059%=      5-min Rain = 0
KDMS 212335Z 03021G26KT 18/10 A2988 RMK A01 T01780097  RH  060%=      5-min Rain = 0
KDMS 212340Z 03019G25KT 18/10 A2989 RMK A01 T01770096  RH  060%=      5-min Rain = 0
KDMS 212345Z 03020KT 18/09 A2989 RMK A01 T01750093  RH  060%=      5-min Rain = 0
KDMS 212350Z 03018G23KT 17/09 A2989 RMK A01 T01740093  RH  060%=      5-min Rain = 0
KDMS 212355Z 03019G25KT 17/09 A299 RMK A01 T01740093  RH  060%=      5-min Rain = 0
KDMS 220000Z 03019KT 17/09 A299 RMK A01 T01720093  RH  060%=      5-min Rain = 0
KDMS 220005Z 03018G23KT 17/10 A299 RMK A01 T01710095  RH  062%=      5-min Rain = 0
KDMS 220010Z 03022G28KT 17/09 A2991 RMK A01 T01680092  RH  062%=      5-min Rain = 0
KDMS 220015Z 03021KT 17/09 A2991 RMK A01 T01650092  RH  063%=      5-min Rain = 0
KDMS 220020Z 03020G25KT 16/09 A2991 RMK A01 T01620091  RH  064%=      5-min Rain = 0
KDMS 220025Z 03020G25KT 16/09 A2991 RMK A01 T01590090  RH  065%=      5-min Rain = 0
KDMS 220030Z 03020G25KT 16/09 A2992 RMK A01 T01550089  RH  066%=      5-min Rain = 0
KDMS 220035Z 02020G26KT 15/09 A2992 RMK A01 T01510089  RH  067%=      5-min Rain = 0
KDMS 220040Z 03021G26KT 15/09 A2992 RMK A01 T01480087  RH  068%=      5-min Rain = 0
KDMS 220045Z 03021KT 14/09 A2993 RMK A01 T01440085  RH  069%=      5-min Rain = 0
KDMS 220050Z 02020G26KT 14/08 A2993 RMK A01 T01390084  RH  070%=      5-min Rain = 0
KDMS 220055Z 03019G25KT 14/08 A2993 RMK A01 T01370083  RH  071%=      5-min Rain = 0
KDMS 220100Z 02018G25KT 13/08 A2994 RMK A01 T01340082  RH  072%=      5-min Rain = 0
KDMS 220105Z 03019G24KT 13/08 A2993 RMK A01 T01300082  RH  073%=      5-min Rain = 0
KDMS 220110Z 02018G23KT 13/08 A2994 RMK A01 T01270080  RH  074%=      5-min Rain = 0
KDMS 220115Z 02019G24KT 12/08 A2995 RMK A01 T01220079  RH  076%=      5-min Rain = 0
KDMS 220120Z 02021G26KT 12/08 A2995 RMK A01 T01190078  RH  077%=      5-min Rain = 0
KDMS 220125Z 02019G24KT 12/08 A2996 RMK A01 T01160077  RH  078%=      5-min Rain = 0
KDMS 220130Z 02021G26KT 11/07 A2996 RMK A01 T01130074  RH  078%=      5-min Rain = 0
KDMS 220135Z 02020G27KT 11/07 A2997 RMK A01 T01120071  RH  077%=      5-min Rain = 0
KDMS 220140Z 02019KT 11/07 A2997 RMK A01 T01120071  RH  077%=      5-min Rain = 0
KDMS 220145Z 02017G22KT 11/07 A2998 RMK A01 T01100071  RH  078%=      5-min Rain = 0
KDMS 220150Z 02019G26KT 11/07 A2998 RMK A01 T01100069  RH  077%=      5-min Rain = 0
KDMS 220155Z 02020G25KT 11/07 A2998 RMK A01 T01100067  RH  076%=      5-min Rain = 0
KDMS 220200Z 02019G25KT 11/07 A2999 RMK A01 T01100066  RH  075%=      5-min Rain = 0
KDMS 220205Z 02021G27KT 11/07 A2999 RMK A01 T01090066  RH  076%=      5-min Rain = 0
KDMS 220210Z 02020G25KT 11/07 A30 RMK A01 T01060066  RH  077%=      5-min Rain = 0
KDMS 220215Z 02022G27KT 11/06 A30 RMK A01 T01050062  RH  076%=      5-min Rain = 0
KDMS 220220Z 02020G25KT 10/06 A3001 RMK A01 T01040061  RH  076%=      5-min Rain = 0
KDMS 220225Z 02019KT 10/06 A3001 RMK A01 T01030061  RH  076%=      5-min Rain = 0
KDMS 220230Z 02017G22KT 10/06 A3002 RMK A01 T01030060  RH  076%=      5-min Rain = 0
KDMS 220235Z 02020G28KT 10/06 A3002 RMK A01 T01010059  RH  076%=      5-min Rain = 0
KDMS 220240Z 02016G22KT 10/06 A3002 RMK A01 T01010061  RH  077%=      5-min Rain = 0
KDMS 220245Z 02019G24KT 10/06 A3002 RMK A01 T01010061  RH  078%=      5-min Rain = 0
KDMS 220250Z 02020G25KT 10/06 A3003 RMK A01 T00990057  RH  076%=      5-min Rain = 0
KDMS 220255Z 02020G25KT 10/06 A3003 RMK A01 T00980056  RH  076%=      5-min Rain = 0
KDMS 220300Z 02022G27KT 10/06 A3004 RMK A01 T00980057  RH  077%=      5-min Rain = 0
KDMS 220305Z 02018G25KT 10/06 A3004 RMK A01 T00980058  RH  077%=      5-min Rain = 0
KDMS 220310Z 02018KT 10/06 A3004 RMK A01 T00980059  RH  078%=      5-min Rain = 0
KDMS 220315Z 02017G22KT 10/06 A3004 RMK A01 T00980059  RH  078%=      5-min Rain = 0
KDMS 220320Z 02017G23KT 10/06 A3005 RMK A01 T00970060  RH  079%=      5-min Rain = 0
KDMS 220325Z 02018G26KT 10/06 A3005 RMK A01 T00960061  RH  080%=      5-min Rain = 0
KDMS 220330Z 02018G24KT 09/06 A3005 RMK A01 T00940056  RH  078%=      5-min Rain = 0
KDMS 220335Z 02019G25KT 09/05 A3006 RMK A01 T00900051  RH  078%=      5-min Rain = 0
KDMS 220340Z 02019G24KT 09/05 A3006 RMK A01 T00900052  RH  078%=      5-min Rain = 0
KDMS 220345Z 02016KT 09/06 A3006 RMK A01 T00920055  RH  079%=      5-min Rain = 0
KDMS 220350Z 02016G21KT 09/06 A3006 RMK A01 T00930057  RH  079%=      5-min Rain = 0
KDMS 220355Z 02019G27KT 09/06 A3006 RMK A01 T00930057  RH  079%=      5-min Rain = 0
KDMS 220400Z 02021G27KT 09/06 A3006 RMK A01 T00940056  RH  078%=      5-min Rain = 0
KDMS 220405Z 02019G26KT 09/05 A3006 RMK A01 T00930054  RH  078%=      5-min Rain = 0
KDMS 220410Z 02019G27KT 09/05 A3007 RMK A01 T00930052  RH  076%=      5-min Rain = 0
KDMS 220415Z 02018KT 09/05 A3007 RMK A01 T00930050  RH  076%=      5-min Rain = 0
KDMS 220420Z 02018KT 09/05 A3007 RMK A01 T00920051  RH  077%=      5-min Rain = 0
KDMS 220425Z 02017G22KT 09/05 A3007 RMK A01 T00920052  RH  077%=      5-min Rain = 0
KDMS 220430Z 02018G25KT 09/05 A3007 RMK A01 T00910053  RH  078%=      5-min Rain = 0
KDMS 220435Z 02018G23KT 09/05 A3007 RMK A01 T00910053  RH  078%=      5-min Rain = 0
KDMS 220440Z 02018KT 09/05 A3008 RMK A01 T00910054  RH  079%=      5-min Rain = 0
KDMS 220445Z 02017G22KT 09/05 A3007 RMK A01 T00910054  RH  079%=      5-min Rain = 0
KDMS 220450Z 02019G24KT 09/05 A3007 RMK A01 T00900054  RH  080%=      5-min Rain = 0
KDMS 220455Z 02020G25KT 09/06 A3007 RMK A01 T00890055  RH  080%=      5-min Rain = 0
KDMS 220500Z 02020G26KT 09/06 A3007 RMK A01 T00890055  RH  080%=      5-min Rain = 0

Page generated in 0.078 seconds.